createdAt,value
2022-10-22T00:00:55.703Z,101472.31
2022-10-22T00:03:22.195Z,101475.00
2022-10-22T00:05:48.641Z,101481.41
2022-10-22T00:08:15.094Z,101483.56
2022-10-22T00:10:41.824Z,101485.66
2022-10-22T00:13:08.241Z,101476.53
2022-10-22T00:15:34.880Z,101481.06
2022-10-22T00:18:01.329Z,101484.53
2022-10-22T00:20:27.802Z,101483.75
2022-10-22T00:22:54.273Z,101483.75
2022-10-22T00:25:20.715Z,101487.59
2022-10-22T00:27:47.151Z,101484.13
2022-10-22T00:30:13.766Z,101495.66
2022-10-22T00:32:40.455Z,101484.34
2022-10-22T00:35:07.644Z,101494.34
2022-10-22T00:37:34.117Z,101498.81
2022-10-22T00:40:07.284Z,101496.38
2022-10-22T00:42:33.682Z,101498.81
2022-10-22T00:45:02.864Z,101503.41
2022-10-22T00:47:35.297Z,101493.84
2022-10-22T00:52:35.581Z,101499.56
2022-10-22T00:55:02.158Z,101491.06
2022-10-22T00:57:28.829Z,101492.88
2022-10-22T00:59:55.912Z,101496.56
2022-10-22T01:02:22.438Z,101493.03
2022-10-22T01:04:48.868Z,101492.41
2022-10-22T01:07:18.430Z,101506.81
2022-10-22T01:10:07.576Z,101510.41
2022-10-22T01:13:06.308Z,101498.38
2022-10-22T01:15:45.576Z,101496.06
2022-10-22T01:18:48.753Z,101482.19
2022-10-22T01:21:18.404Z,101482.19
2022-10-22T01:24:02.674Z,101487.69
2022-10-22T01:26:50.406Z,101491.06
2022-10-22T01:29:42.534Z,101486.00
2022-10-22T01:32:14.673Z,101483.84
2022-10-22T01:34:46.467Z,101486.13
2022-10-22T01:37:15.258Z,101482.19
2022-10-22T01:39:45.361Z,101486.22
2022-10-22T01:42:13.208Z,101476.53
2022-10-22T01:44:39.789Z,101483.56
2022-10-22T01:47:30.995Z,101489.69
2022-10-22T01:50:09.346Z,101482.66
2022-10-22T01:53:06.545Z,101481.28
2022-10-22T01:55:55.871Z,101499.75
2022-10-22T01:58:25.336Z,101493.56
2022-10-22T02:01:08.779Z,101504.22
2022-10-22T02:03:48.732Z,101511.38
2022-10-22T02:06:20.607Z,101526.06
2022-10-22T02:08:49.305Z,101531.22
2022-10-22T02:11:16.376Z,101520.03
2022-10-22T02:13:46.788Z,101526.06
2022-10-22T02:16:21.711Z,101531.03
2022-10-22T02:18:52.677Z,101525.09
2022-10-22T02:21:19.255Z,101520.66
2022-10-22T02:23:46.666Z,101526.22
2022-10-22T02:26:31.543Z,101527.38
2022-10-22T02:29:00.711Z,101523.97
2022-10-22T02:31:33.848Z,101510.16
2022-10-22T02:34:05.320Z,101523.09
2022-10-22T02:36:32.225Z,101531.88
2022-10-22T02:39:00.062Z,101525.84
2022-10-22T02:41:28.038Z,101513.25
2022-10-22T02:43:55.522Z,101503.25
2022-10-22T02:46:22.950Z,101502.00
2022-10-22T02:48:49.368Z,101489.34
2022-10-22T02:51:15.793Z,101494.22
2022-10-22T02:53:42.283Z,101488.88
2022-10-22T02:56:08.712Z,101492.00
2022-10-22T02:58:35.215Z,101493.03
2022-10-22T03:01:01.690Z,101496.88
2022-10-22T03:03:28.143Z,101501.03
2022-10-22T03:05:54.544Z,101504.72
2022-10-22T03:08:21.253Z,101511.38
2022-10-22T03:10:47.691Z,101501.94
2022-10-22T03:13:14.092Z,101508.31
2022-10-22T03:15:40.551Z,101514.44
2022-10-22T03:18:07.020Z,101515.78
2022-10-22T03:20:33.435Z,101513.97
2022-10-22T03:23:02.299Z,101506.81
2022-10-22T03:25:31.027Z,101499.75
2022-10-22T03:28:03.080Z,101499.50
2022-10-22T03:30:29.548Z,101501.09
2022-10-22T03:32:55.974Z,101518.97
2022-10-22T03:35:22.470Z,101520.69
2022-10-22T03:37:49.214Z,101525.03
2022-10-22T03:40:15.850Z,101526.56
2022-10-22T03:42:42.676Z,101534.59
2022-10-22T03:45:09.693Z,101536.56
2022-10-22T03:47:37.346Z,101532.34
2022-10-22T03:50:04.888Z,101545.44
2022-10-22T03:52:36.723Z,101586.81
2022-10-22T03:55:04.477Z,101583.41
2022-10-22T03:57:30.968Z,101589.84
2022-10-22T03:59:57.383Z,101593.81
2022-10-22T04:02:23.755Z,101593.47
2022-10-22T04:04:50.163Z,101586.78
2022-10-22T04:07:16.613Z,101591.31
2022-10-22T04:09:43.024Z,101595.69
2022-10-22T04:12:09.555Z,101614.41
2022-10-22T04:14:35.964Z,101606.06
2022-10-22T04:17:02.468Z,101610.22
2022-10-22T04:19:28.893Z,101623.75
2022-10-22T04:21:58.321Z,101625.63
2022-10-22T04:24:24.828Z,101628.59
2022-10-22T04:26:54.323Z,101635.56
2022-10-22T04:29:20.764Z,101652.06
2022-10-22T04:31:47.183Z,101648.25
2022-10-22T04:34:13.587Z,101656.28
2022-10-22T04:36:40.027Z,101648.03
2022-10-22T04:39:06.739Z,101666.78
2022-10-22T04:41:35.821Z,101697.94
2022-10-22T04:44:03.198Z,101877.31
2022-10-22T04:46:32.047Z,101903.88
2022-10-22T04:48:58.810Z,101910.13
2022-10-22T04:51:26.619Z,101925.59
2022-10-22T04:53:53.341Z,101919.94
2022-10-22T04:56:27.489Z,101920.53
2022-10-22T04:58:59.951Z,101925.25
2022-10-22T05:01:36.962Z,101927.69
2022-10-22T05:04:08.146Z,101920.34
2022-10-22T05:06:36.424Z,101919.59
2022-10-22T05:09:11.533Z,101904.47
2022-10-22T05:11:41.581Z,101918.56
2022-10-22T05:14:10.385Z,101920.78
2022-10-22T05:16:38.165Z,101929.59
2022-10-22T05:19:05.719Z,101913.34
2022-10-22T05:21:32.381Z,101900.50
2022-10-22T05:24:01.692Z,101900.00
2022-10-22T05:26:29.104Z,101896.47
2022-10-22T05:28:56.699Z,101901.63
2022-10-22T05:31:23.418Z,101910.06
2022-10-22T05:33:50.052Z,101944.78
2022-10-22T05:36:19.515Z,101945.19
2022-10-22T05:38:46.404Z,101959.28
2022-10-22T05:41:15.435Z,101996.75
2022-10-22T05:43:42.247Z,102017.75
2022-10-22T05:46:13.578Z,102024.97
2022-10-22T05:48:40.536Z,102038.28
2022-10-22T05:51:09.351Z,102043.84
2022-10-22T05:53:38.311Z,102049.41
2022-10-22T05:56:08.427Z,102051.91
2022-10-22T05:58:36.185Z,102072.63
2022-10-22T06:01:08.216Z,102073.22
2022-10-22T06:03:34.746Z,102103.00
2022-10-22T06:06:04.834Z,102095.47
2022-10-22T06:08:31.471Z,102101.28
2022-10-22T06:10:58.121Z,102089.19
2022-10-22T06:13:24.539Z,102114.59
2022-10-22T06:15:53.440Z,102124.34
2022-10-22T06:18:19.957Z,102155.53
2022-10-22T06:20:47.548Z,102205.72
2022-10-22T06:23:14.769Z,102238.34
2022-10-22T06:25:42.374Z,102240.94
2022-10-22T06:28:08.989Z,102247.34
2022-10-22T06:30:39.141Z,102261.47
2022-10-22T06:33:07.087Z,102285.50
2022-10-22T06:35:33.487Z,102308.38
2022-10-22T06:38:00.168Z,102297.44
2022-10-22T06:40:26.694Z,102264.94
2022-10-22T06:42:53.132Z,102268.94
2022-10-22T06:45:19.557Z,102270.59
2022-10-22T06:47:47.232Z,102273.97
2022-10-22T06:50:13.632Z,102297.31
2022-10-22T06:52:40.036Z,102324.16
2022-10-22T06:55:06.616Z,102377.38
2022-10-22T06:57:33.086Z,102541.66
2022-10-22T06:59:59.487Z,102558.94
2022-10-22T07:02:25.974Z,102593.31
2022-10-22T07:04:52.541Z,102599.69
2022-10-22T07:07:18.968Z,102602.75
2022-10-22T07:09:47.312Z,102604.63
2022-10-22T07:12:14.002Z,102515.44
2022-10-22T07:14:40.424Z,102609.19
2022-10-22T07:17:06.825Z,102619.13
2022-10-22T07:19:33.589Z,102617.16
2022-10-22T07:22:00.743Z,102612.09
2022-10-22T07:24:27.335Z,102625.56
2022-10-22T07:26:53.935Z,102621.69
2022-10-22T07:29:20.373Z,102628.16
2022-10-22T07:31:46.824Z,102627.00
2022-10-22T07:34:13.458Z,102645.41
2022-10-22T07:36:39.902Z,102636.81
2022-10-22T07:39:06.490Z,102651.00
2022-10-22T07:41:33.261Z,102647.66
2022-10-22T07:43:59.923Z,102658.34
2022-10-22T07:46:26.927Z,102674.38
2022-10-22T07:48:53.549Z,102661.91
2022-10-22T07:51:20.105Z,102620.09
2022-10-22T07:53:46.636Z,102579.81
2022-10-22T07:56:13.843Z,102519.97
2022-10-22T07:58:41.529Z,102500.41
2022-10-22T08:01:08.248Z,102493.91
2022-10-22T08:03:34.832Z,102484.28
2022-10-22T08:06:01.629Z,102438.47
2022-10-22T08:08:30.847Z,102438.41
2022-10-22T08:10:59.936Z,102393.81
2022-10-22T08:13:27.390Z,102145.00
2022-10-22T08:15:57.255Z,102139.66
2022-10-22T08:18:24.436Z,102132.16
2022-10-22T08:20:51.192Z,102124.78
2022-10-22T08:23:17.976Z,102128.66
2022-10-22T08:25:44.362Z,102131.66
2022-10-22T08:28:10.812Z,102124.28
2022-10-22T08:30:38.620Z,102113.78
2022-10-22T08:33:05.688Z,102121.00
2022-10-22T08:35:32.175Z,102119.91
2022-10-22T08:37:58.695Z,102096.41
2022-10-22T08:40:37.342Z,102086.47
2022-10-22T08:43:41.875Z,102081.22
2022-10-22T08:46:32.538Z,102082.41
2022-10-22T08:49:03.051Z,102041.88
2022-10-22T08:51:40.273Z,102029.25
2022-10-22T08:54:30.550Z,101986.97
2022-10-22T08:57:04.136Z,101940.22
2022-10-22T08:59:44.389Z,101887.16
2022-10-22T09:02:27.218Z,101870.44
2022-10-22T09:05:21.484Z,101802.66
2022-10-22T09:07:50.322Z,101805.09
2022-10-22T09:10:19.977Z,101805.97
2022-10-22T09:12:48.293Z,101818.34
2022-10-22T09:15:15.622Z,101831.25
2022-10-22T09:17:48.122Z,101842.44
2022-10-22T09:20:41.591Z,101839.91
2022-10-22T09:23:19.233Z,101833.88
2022-10-22T09:25:46.913Z,101838.69
2022-10-22T09:28:13.848Z,101821.50
2022-10-22T09:30:40.469Z,101721.97
2022-10-22T09:33:14.380Z,101746.31
2022-10-22T09:35:52.356Z,101745.28
2022-10-22T09:38:21.771Z,101752.66
2022-10-22T09:40:54.293Z,101730.91
2022-10-22T09:43:21.109Z,101741.22
2022-10-22T09:45:49.450Z,101731.00
2022-10-22T09:48:26.484Z,101736.25
2022-10-22T09:51:18.329Z,101718.06
2022-10-22T09:53:47.543Z,101723.78
2022-10-22T09:56:23.765Z,101717.53
2022-10-22T09:58:51.235Z,101717.25
2022-10-22T10:01:28.030Z,101723.09
2022-10-22T10:04:04.479Z,101725.19
2022-10-22T10:06:34.841Z,101729.28
2022-10-22T10:09:05.697Z,101738.56
2022-10-22T10:11:48.845Z,101734.25
2022-10-22T10:14:34.756Z,101723.25
2022-10-22T10:17:12.872Z,101731.56
2022-10-22T10:19:47.492Z,101705.78
2022-10-22T10:22:20.609Z,101699.88
2022-10-22T10:25:14.456Z,101691.19
2022-10-22T10:27:47.735Z,101662.72
2022-10-22T10:30:18.028Z,101625.47
2022-10-22T10:33:10.301Z,101563.97
2022-10-22T10:36:03.374Z,101446.75
2022-10-22T10:38:41.981Z,101360.47
2022-10-22T10:41:15.900Z,101237.03
2022-10-22T10:44:17.616Z,101159.53
2022-10-22T10:46:57.367Z,101119.03
2022-10-22T10:49:26.306Z,101065.84
2022-10-22T10:52:06.647Z,101029.63
2022-10-22T10:54:50.012Z,100976.53
2022-10-22T10:57:39.789Z,100959.31
2022-10-22T11:00:14.271Z,100935.00
2022-10-22T11:02:50.829Z,100912.06
2022-10-22T11:05:37.289Z,100886.88
2022-10-22T11:08:21.621Z,100871.34
2022-10-22T11:10:56.671Z,100859.44
2022-10-22T11:13:48.027Z,100843.81
2022-10-22T11:16:26.993Z,100815.06
2022-10-22T11:19:49.792Z,100793.63
2022-10-22T11:22:26.460Z,100785.09
2022-10-22T11:25:00.032Z,100785.84
2022-10-22T11:27:50.316Z,100792.53
2022-10-22T11:30:21.159Z,100868.00
2022-10-22T11:32:53.148Z,100896.97
2022-10-22T11:35:26.925Z,101057.91
2022-10-22T11:37:56.211Z,100944.09
2022-10-22T11:40:34.249Z,100965.56
2022-10-22T11:43:09.668Z,100977.13
2022-10-22T11:45:39.208Z,100978.34
2022-10-22T11:48:11.398Z,100993.72
2022-10-22T11:50:54.914Z,101053.38
2022-10-22T11:53:37.249Z,100986.59
2022-10-22T11:56:22.732Z,100954.69
2022-10-22T11:58:52.301Z,100929.84
2022-10-22T12:01:27.667Z,100939.41
2022-10-22T12:04:17.053Z,100924.56
2022-10-22T12:06:56.448Z,100856.00
2022-10-22T12:09:26.275Z,100890.22
2022-10-22T12:11:52.784Z,100888.56
2022-10-22T12:14:40.690Z,100926.47
2022-10-22T12:17:19.098Z,100979.72
2022-10-22T12:20:02.831Z,100977.63
2022-10-22T12:22:32.503Z,100971.50
2022-10-22T12:25:06.147Z,100971.72
2022-10-22T12:27:41.454Z,100948.66
2022-10-22T12:30:22.705Z,100857.97
2022-10-22T12:32:53.651Z,100820.69
2022-10-22T12:35:24.075Z,100802.78
2022-10-22T12:38:15.276Z,100835.69
2022-10-22T12:40:45.907Z,100881.19
2022-10-22T12:43:17.877Z,100908.69
2022-10-22T12:45:47.143Z,100944.91
2022-10-22T12:48:20.545Z,100961.31
2022-10-22T12:50:53.365Z,100976.53
2022-10-22T12:53:26.071Z,101004.78
2022-10-22T12:55:55.420Z,101027.03
2022-10-22T12:58:33.862Z,101035.00
2022-10-22T13:01:03.663Z,101031.22
2022-10-22T13:03:40.641Z,101043.72
2022-10-22T13:06:20.169Z,101051.25
2022-10-22T13:09:12.330Z,101071.69
2022-10-22T13:11:42.319Z,101070.31
2022-10-22T13:14:41.051Z,101062.97
2022-10-22T13:17:37.052Z,101063.56
2022-10-22T13:20:15.002Z,101049.56
2022-10-22T13:23:03.374Z,101033.59
2022-10-22T13:25:39.553Z,101031.13
2022-10-22T13:28:15.014Z,101001.88
2022-10-22T13:30:52.876Z,100945.31
2022-10-22T13:33:38.285Z,100907.41
2022-10-22T13:36:06.003Z,100887.31
2022-10-22T13:38:32.642Z,100878.28
2022-10-22T13:40:59.414Z,100852.44
2022-10-22T13:43:26.402Z,100821.78
2022-10-22T13:45:55.542Z,100793.59
2022-10-22T13:48:24.914Z,100753.09
2022-10-22T13:50:52.271Z,100729.03
2022-10-22T13:53:22.067Z,100666.50
2022-10-22T13:55:50.155Z,100624.44
2022-10-22T13:58:20.170Z,100589.13
2022-10-22T14:00:50.413Z,100555.91
2022-10-22T14:03:21.416Z,100533.59
2022-10-22T14:05:48.828Z,100557.34
2022-10-22T14:08:18.767Z,100587.25
2022-10-22T14:10:45.701Z,100618.06
2022-10-22T14:13:14.295Z,100637.25
2022-10-22T14:15:41.610Z,100653.66
2022-10-22T14:18:15.374Z,100645.78
2022-10-22T14:20:42.884Z,100646.06
2022-10-22T14:25:43.512Z,100677.63
2022-10-22T14:28:13.840Z,100708.06
2022-10-22T14:30:41.146Z,100724.44
2022-10-22T14:33:32.622Z,100750.66
2022-10-22T14:36:00.140Z,100771.16
2022-10-22T14:38:26.576Z,100780.19
2022-10-22T14:40:53.123Z,100781.75
2022-10-22T14:43:24.547Z,100779.06
2022-10-22T14:45:50.972Z,100784.81
2022-10-22T14:50:49.172Z,100805.47
2022-10-22T14:53:19.471Z,100808.44
2022-10-22T14:55:47.432Z,100808.66
2022-10-22T14:58:14.126Z,100821.25
2022-10-22T15:00:41.824Z,100829.31
2022-10-22T15:03:08.358Z,100824.38
2022-10-22T15:05:36.360Z,100849.66
2022-10-22T15:08:02.864Z,100842.03
2022-10-22T15:10:29.413Z,100856.91
2022-10-22T15:12:56.055Z,100857.59
2022-10-22T15:15:23.230Z,100865.09
2022-10-22T15:17:51.240Z,100871.00
2022-10-22T15:20:17.812Z,100889.84
2022-10-22T15:22:45.266Z,100889.03
2022-10-22T15:25:13.281Z,100904.53
2022-10-22T15:27:40.319Z,100913.44
2022-10-22T15:30:08.474Z,100935.94
2022-10-22T15:32:34.973Z,100943.63
2022-10-22T15:35:01.865Z,100952.66
2022-10-22T15:37:28.299Z,100969.50
2022-10-22T15:39:54.831Z,100979.66
2022-10-22T15:42:21.440Z,100985.69
2022-10-22T15:44:47.844Z,100998.63
2022-10-22T15:47:14.248Z,100997.09
2022-10-22T15:49:41.823Z,101007.97
2022-10-22T15:52:09.072Z,101006.00
2022-10-22T15:54:35.907Z,101015.94
2022-10-22T15:57:03.847Z,101023.72
2022-10-22T15:59:30.319Z,101021.72
2022-10-22T16:01:56.832Z,101034.75
2022-10-22T16:04:23.331Z,101035.34
2022-10-22T16:06:54.786Z,101031.84
2022-10-22T16:09:23.960Z,101032.56
2022-10-22T16:14:23.995Z,101034.78
2022-10-22T16:16:52.856Z,101032.09
2022-10-22T16:19:21.157Z,101032.59
2022-10-22T16:21:50.015Z,101043.53
2022-10-22T16:24:17.926Z,101036.47
2022-10-22T16:26:44.621Z,101040.13
2022-10-22T16:29:12.483Z,101041.06
2022-10-22T16:31:40.573Z,101041.81
2022-10-22T16:34:07.628Z,101052.53
2022-10-22T16:36:36.125Z,101055.78
2022-10-22T16:39:04.943Z,101053.03
2022-10-22T16:41:37.756Z,101087.81
2022-10-22T16:44:07.681Z,101092.41
2022-10-22T16:46:38.341Z,101104.06
2022-10-22T16:49:05.680Z,101121.75
2022-10-22T16:51:32.214Z,101128.53
2022-10-22T16:53:59.049Z,101136.16
2022-10-22T16:56:26.136Z,101153.91
2022-10-22T16:58:55.013Z,101165.81
2022-10-22T17:01:25.886Z,101188.53
2022-10-22T17:03:54.673Z,101211.84
2022-10-22T17:06:22.214Z,101252.16
2022-10-22T17:08:48.685Z,101281.72
2022-10-22T17:11:18.763Z,101311.56
2022-10-22T17:13:48.933Z,101329.41
2022-10-22T17:16:18.473Z,101355.25
2022-10-22T17:21:18.501Z,101383.34
2022-10-22T17:23:46.047Z,101394.06
2022-10-22T17:26:16.655Z,101399.94
2022-10-22T17:28:43.492Z,101415.00
2022-10-22T17:31:18.048Z,101413.94
2022-10-22T17:33:44.955Z,101424.41
2022-10-22T17:36:12.960Z,101425.88
2022-10-22T17:38:41.514Z,101425.47
2022-10-22T17:41:11.471Z,101431.25
2022-10-22T17:43:41.124Z,101438.63
2022-10-22T17:46:10.800Z,101441.94
2022-10-22T17:48:37.504Z,101443.31
2022-10-22T17:51:12.074Z,101459.38
2022-10-22T17:53:46.014Z,101450.19
2022-10-22T17:56:15.426Z,101457.84
2022-10-22T17:58:42.143Z,101477.97
2022-10-22T18:01:26.297Z,101468.84
2022-10-22T18:03:54.292Z,101477.72
2022-10-22T18:06:21.966Z,101487.84
2022-10-22T18:08:48.691Z,101481.94
2022-10-22T18:11:21.492Z,101498.09
2022-10-22T18:13:52.429Z,101503.97
2022-10-22T18:16:19.816Z,101516.09
2022-10-22T18:18:50.864Z,101530.84
2022-10-22T18:21:18.473Z,101538.53
2022-10-22T18:23:45.625Z,101554.50
2022-10-22T18:26:13.047Z,101575.41
2022-10-22T18:28:39.496Z,101576.25
2022-10-22T18:31:08.063Z,101569.03
2022-10-22T18:33:36.987Z,101590.31
2022-10-22T18:36:09.355Z,101596.13
2022-10-22T18:38:38.082Z,101613.28
2022-10-22T18:41:09.552Z,101615.88
2022-10-22T18:43:36.756Z,101628.72
2022-10-22T18:46:06.223Z,101642.66
2022-10-22T18:48:32.671Z,101643.69
2022-10-22T18:51:01.816Z,101655.78
2022-10-22T18:53:29.018Z,101668.50
2022-10-22T18:55:56.934Z,101705.84
2022-10-22T18:58:23.588Z,101707.84
2022-10-22T19:00:51.140Z,101715.00
2022-10-22T19:03:17.688Z,101720.06
2022-10-22T19:05:52.051Z,101727.84
2022-10-22T19:08:19.471Z,101721.19
2022-10-22T19:10:47.395Z,101733.78
2022-10-22T19:13:15.655Z,101747.25
2022-10-22T19:15:42.111Z,101746.94
2022-10-22T19:18:08.764Z,101744.09
2022-10-22T19:20:36.488Z,101734.72
2022-10-22T19:23:03.480Z,101733.97
2022-10-22T19:25:29.913Z,101719.88
2022-10-22T19:27:56.418Z,101731.47
2022-10-22T19:30:24.245Z,101721.19
2022-10-22T19:32:50.711Z,101711.28
2022-10-22T19:35:17.296Z,101713.19
2022-10-22T19:37:48.210Z,101714.69
2022-10-22T19:40:15.366Z,101711.38
2022-10-22T19:42:44.264Z,101715.09
2022-10-22T19:45:11.263Z,101714.72
2022-10-22T19:47:37.747Z,101721.00
2022-10-22T19:50:04.532Z,101722.88
2022-10-22T19:52:30.922Z,101718.13
2022-10-22T19:54:57.452Z,101714.69
2022-10-22T19:57:23.883Z,101698.19
2022-10-22T19:59:51.043Z,101694.09
2022-10-22T20:02:18.200Z,101687.78
2022-10-22T20:04:49.131Z,101686.34
2022-10-22T20:07:16.418Z,101678.84
2022-10-22T20:09:42.846Z,101669.13
2022-10-22T20:12:09.276Z,101674.66
2022-10-22T20:14:35.791Z,101672.53
2022-10-22T20:17:02.202Z,101674.22
2022-10-22T20:19:29.754Z,101692.28
2022-10-22T20:21:56.254Z,101691.09
2022-10-22T20:24:22.871Z,101696.22
2022-10-22T20:26:49.323Z,101687.31
2022-10-22T20:29:16.429Z,101686.00
2022-10-22T20:31:42.858Z,101676.28
2022-10-22T20:34:09.358Z,101677.78
2022-10-22T20:36:35.809Z,101670.53
2022-10-22T20:39:06.178Z,101670.38
2022-10-22T20:41:34.099Z,101674.69
2022-10-22T20:44:00.888Z,101662.97
2022-10-22T20:46:30.747Z,101679.91
2022-10-22T20:49:04.834Z,101673.34
2022-10-22T20:51:31.852Z,101681.63
2022-10-22T20:53:58.828Z,101687.16
2022-10-22T20:56:25.644Z,101690.75
2022-10-22T20:59:03.776Z,101690.75
2022-10-22T21:01:42.555Z,101705.19
2022-10-22T21:04:09.375Z,101705.88
2022-10-22T21:06:38.181Z,101711.56
2022-10-22T21:09:06.546Z,101713.38
2022-10-22T21:11:33.389Z,101729.56
2022-10-22T21:14:00.125Z,101807.69
2022-10-22T21:16:26.828Z,101822.22
2022-10-22T21:18:53.355Z,101824.88
2022-10-22T21:21:19.992Z,101852.31
2022-10-22T21:23:46.711Z,101863.28
2022-10-22T21:26:13.184Z,101853.06
2022-10-22T21:28:39.670Z,101865.47
2022-10-22T21:31:08.349Z,101852.59
2022-10-22T21:33:39.173Z,101847.25
2022-10-22T21:36:06.912Z,101851.78
2022-10-22T21:38:34.621Z,101863.25
2022-10-22T21:41:08.351Z,101871.81
2022-10-22T21:43:37.899Z,101884.81
2022-10-22T21:46:16.943Z,101863.56
2022-10-22T21:48:44.051Z,101862.59
2022-10-22T21:51:14.343Z,101871.25
2022-10-22T21:53:41.251Z,101867.81
2022-10-22T21:56:12.872Z,101873.69
2022-10-22T21:58:39.300Z,101863.03
2022-10-22T22:01:05.943Z,101866.47
2022-10-22T22:03:33.187Z,101876.41
2022-10-22T22:06:01.609Z,101878.25
2022-10-22T22:08:28.719Z,101881.59
2022-10-22T22:11:09.576Z,101871.53
2022-10-22T22:13:36.900Z,101868.50
2022-10-22T22:16:06.715Z,101873.59
2022-10-22T22:18:34.437Z,101875.75
2022-10-22T22:21:04.693Z,101869.69
2022-10-22T22:23:31.592Z,101868.00
2022-10-22T22:25:59.311Z,101878.47
2022-10-22T22:28:26.122Z,101868.22
2022-10-22T22:30:52.529Z,101874.75
2022-10-22T22:33:18.967Z,101878.06
2022-10-22T22:35:45.416Z,101876.16
2022-10-22T22:38:11.828Z,101883.53
2022-10-22T22:40:39.431Z,101893.50
2022-10-22T22:43:05.873Z,101908.75
2022-10-22T22:45:32.267Z,101925.28
2022-10-22T22:47:58.755Z,101923.03
2022-10-22T22:50:25.191Z,101925.28
2022-10-22T22:52:51.584Z,101924.94
2022-10-22T22:55:18.212Z,101925.44
2022-10-22T22:57:44.675Z,101922.63
2022-10-22T23:00:12.873Z,101926.31
2022-10-22T23:02:39.711Z,101918.97
2022-10-22T23:05:06.898Z,101920.50
2022-10-22T23:07:33.404Z,101917.28
2022-10-22T23:10:00.119Z,101921.75
2022-10-22T23:12:26.647Z,101928.81
2022-10-22T23:14:53.031Z,101917.75
2022-10-22T23:17:19.869Z,101931.59
2022-10-22T23:19:46.307Z,101931.59
2022-10-22T23:22:12.937Z,101945.03
2022-10-22T23:24:39.547Z,101944.25
2022-10-22T23:27:05.975Z,101946.94
2022-10-22T23:29:34.285Z,101948.38
2022-10-22T23:32:01.413Z,101946.34
2022-10-22T23:34:28.820Z,101953.63
2022-10-22T23:36:55.798Z,101940.69
2022-10-22T23:39:25.038Z,101940.38
2022-10-22T23:41:53.077Z,101942.72
2022-10-22T23:44:20.434Z,101970.88
2022-10-22T23:46:46.913Z,101980.84
2022-10-22T23:49:14.307Z,102011.50
2022-10-22T23:51:41.083Z,102013.91
2022-10-22T23:54:12.583Z,102015.88
2022-10-22T23:56:39.220Z,102018.94
2022-10-22T23:59:05.894Z,102030.56
